createdAt,value
2018-09-17T00:00:29.761Z,76.708984
2018-09-17T00:01:45.733Z,77.246094
2018-09-17T00:03:01.806Z,77.111816
2018-09-17T00:04:17.795Z,76.9104
2018-09-17T00:05:33.782Z,77.044678
2018-09-17T00:06:49.885Z,77.349854
2018-09-17T00:08:06.848Z,77.587891
2018-09-17T00:09:22.805Z,77.789307
2018-09-17T00:10:38.810Z,77.893066
2018-09-17T00:11:54.980Z,77.490234
2018-09-17T00:13:11.003Z,77.587891
2018-09-17T00:14:26.926Z,77.490234
2018-09-17T00:15:42.861Z,76.947021
2018-09-17T00:16:58.828Z,76.641846
2018-09-17T00:18:14.857Z,76.544189
2018-09-17T00:19:30.810Z,76.745605
2018-09-17T00:20:46.835Z,76.44043
2018-09-17T00:22:02.852Z,76.641846
2018-09-17T00:23:18.856Z,76.44043
2018-09-17T00:24:34.927Z,76.44043
2018-09-17T00:25:50.863Z,76.641846
2018-09-17T00:27:06.866Z,76.44043
2018-09-17T00:28:22.892Z,76.44043
2018-09-17T00:29:38.839Z,76.641846
2018-09-17T00:31:12.749Z,76.000977
2018-09-17T00:32:28.713Z,76.141357
2018-09-17T00:33:44.669Z,76.342773
2018-09-17T00:35:00.717Z,76.544189
2018-09-17T00:36:34.558Z,76.544189
2018-09-17T00:37:50.653Z,76.202393
2018-09-17T00:39:06.592Z,76.342773
2018-09-17T00:40:22.510Z,76.239014
2018-09-17T00:41:38.623Z,76.544189
2018-09-17T00:42:54.759Z,76.239014
2018-09-17T00:44:10.715Z,76.44043
2018-09-17T00:45:44.539Z,76.104736
2018-09-17T00:47:00.642Z,75.701904
2018-09-17T00:48:16.633Z,75.90332
2018-09-17T00:49:32.575Z,76.306152
2018-09-17T00:52:30.056Z,76.544189
2018-09-17T00:54:04.996Z,76.403809
2018-09-17T00:55:21.008Z,76.306152
2018-09-17T00:56:36.926Z,76.843262
2018-09-17T00:58:10.820Z,76.745605
2018-09-17T00:59:26.745Z,76.306152
2018-09-17T01:00:42.699Z,76.641846
2018-09-17T01:19:49.674Z,76.843262
2018-09-17T01:21:05.594Z,76.947021
2018-09-17T01:22:21.560Z,76.544189
2018-09-17T01:23:55.455Z,76.44043
2018-09-17T01:25:11.379Z,76.544189
2018-09-17T01:26:27.433Z,76.745605
2018-09-17T01:27:43.363Z,77.490234
2018-09-17T01:28:59.495Z,78.631592
2018-09-17T01:30:15.574Z,78.936768
2018-09-17T01:31:31.584Z,78.936768
2018-09-17T01:32:47.657Z,78.735352
2018-09-17T01:34:03.611Z,78.430176
2018-09-17T01:35:19.537Z,78.735352
2018-09-17T01:36:35.507Z,77.990723
2018-09-17T01:37:51.421Z,77.490234
2018-09-17T01:39:07.398Z,77.929688
2018-09-17T01:40:23.328Z,78.027344
2018-09-17T01:41:39.316Z,78.22876
2018-09-17T01:42:55.383Z,78.570557
2018-09-17T01:44:11.315Z,78.570557
2018-09-17T01:45:45.136Z,78.369141
2018-09-17T01:47:01.089Z,78.771973
2018-09-17T01:48:17.012Z,78.570557
2018-09-17T01:49:32.961Z,78.570557
2018-09-17T01:50:48.871Z,78.265381
2018-09-17T01:52:22.729Z,77.966309
2018-09-17T01:53:38.774Z,78.503418
2018-09-17T01:55:12.649Z,77.661133
2018-09-17T01:56:28.589Z,77.563477
2018-09-17T01:57:44.605Z,77.11792
2018-09-17T01:59:19.602Z,76.916504
2018-09-17T02:00:35.642Z,76.715088
2018-09-17T02:01:51.592Z,76.513672
2018-09-17T02:03:07.604Z,76.074219
2018-09-17T02:04:23.652Z,76.177979
2018-09-17T02:05:57.564Z,75.872803
2018-09-17T02:07:13.493Z,76.416016
2018-09-17T02:08:29.453Z,76.953125
2018-09-17T02:09:45.452Z,76.715088
2018-09-17T02:11:01.468Z,76.617432
2018-09-17T02:12:17.420Z,76.953125
2018-09-17T02:13:33.404Z,76.617432
2018-09-17T02:14:49.409Z,76.751709
2018-09-17T02:16:05.360Z,77.563477
2018-09-17T02:17:39.183Z,77.600098
2018-09-17T02:18:55.337Z,78.00293
2018-09-17T02:20:11.293Z,77.89917
2018-09-17T02:21:27.358Z,78.039551
2018-09-17T02:22:43.319Z,77.801514
2018-09-17T02:23:59.214Z,77.801514
2018-09-17T02:25:33.069Z,78.137207
2018-09-17T02:26:49.091Z,77.801514
2018-09-17T02:28:05.169Z,77.496338
2018-09-17T02:29:21.136Z,78.039551
2018-09-17T02:30:37.054Z,78.747559
2018-09-17T02:31:53.021Z,78.747559
2018-09-17T02:36:05.616Z,80.541992
2018-09-17T02:37:21.639Z,79.693604
2018-09-17T02:38:37.550Z,79.083252
2018-09-17T02:41:34.070Z,78.240967
2018-09-17T02:43:08.873Z,78.039551
2018-09-17T02:44:24.775Z,78.442383
2018-09-17T02:45:40.756Z,79.083252
2018-09-17T02:48:20.036Z,78.240967
2018-09-17T02:49:35.967Z,77.697754
2018-09-17T02:50:51.889Z,77.093506
2018-09-17T02:52:07.913Z,77.294922
2018-09-17T02:53:24.026Z,77.801514
2018-09-17T02:54:39.929Z,78.039551
2018-09-17T02:57:36.364Z,76.953125
2018-09-17T02:58:52.441Z,77.496338
2018-09-17T03:00:08.375Z,78.240967
2018-09-17T03:01:24.401Z,78.039551
2018-09-17T03:04:21.216Z,78.240967
2018-09-17T03:05:37.115Z,77.801514
2018-09-17T03:06:53.198Z,77.294922
2018-09-17T03:08:09.165Z,77.392578
2018-09-17T03:09:25.152Z,77.392578
2018-09-17T03:12:23.061Z,76.855469
2018-09-17T03:13:58.016Z,76.89209
2018-09-17T03:15:14.001Z,77.935791
2018-09-17T03:16:29.983Z,78.985596
2018-09-17T03:18:04.095Z,78.643799
2018-09-17T03:19:20.105Z,78.845215
2018-09-17T03:20:54.962Z,78.546143
2018-09-17T03:22:10.980Z,78.747559
2018-09-17T03:23:27.078Z,78.338623
2018-09-17T03:24:42.998Z,78.643799
2018-09-17T03:25:58.967Z,78.546143
2018-09-17T03:27:14.956Z,78.747559
2018-09-17T03:28:30.885Z,79.083252
2018-09-17T03:29:46.844Z,78.948975
2018-09-17T03:31:02.909Z,78.948975
2018-09-17T03:32:18.942Z,78.845215
2018-09-17T03:33:34.936Z,79.083252
2018-09-17T03:34:50.869Z,78.948975
2018-09-17T03:36:06.916Z,78.643799
2018-09-17T03:37:22.964Z,78.948975
2018-09-17T03:38:38.919Z,79.290771
2018-09-17T03:39:54.837Z,79.693604
2018-09-17T03:41:10.783Z,79.693604
2018-09-17T03:42:26.720Z,79.25415
2018-09-17T03:43:42.812Z,78.948975
2018-09-17T03:44:58.688Z,79.046631
2018-09-17T03:46:14.722Z,79.150391
2018-09-17T03:47:30.648Z,79.25415
2018-09-17T03:48:46.627Z,78.607178
2018-09-17T03:50:02.572Z,78.948975
2018-09-17T03:51:18.494Z,79.150391
2018-09-17T03:52:34.551Z,79.150391
2018-09-17T03:53:50.522Z,79.046631
2018-09-17T03:55:06.437Z,78.845215
2018-09-17T03:56:41.271Z,79.083252
2018-09-17T03:57:57.329Z,79.25415
2018-09-17T03:59:13.339Z,79.589844
2018-09-17T04:00:29.409Z,79.150391
2018-09-17T04:01:45.448Z,78.503418
2018-09-17T04:03:01.408Z,79.046631
2018-09-17T04:04:18.375Z,78.948975
2018-09-17T04:05:34.492Z,79.046631
2018-09-17T04:07:08.552Z,78.948975
2018-09-17T04:08:24.494Z,78.643799
2018-09-17T04:09:40.523Z,78.607178
2018-09-17T04:10:56.643Z,78.912354
2018-09-17T04:12:12.716Z,79.315186
2018-09-17T04:13:46.573Z,79.412842
2018-09-17T04:15:02.490Z,80.059814
2018-09-17T04:16:36.495Z,81.170654
2018-09-17T04:17:52.505Z,81.072998
2018-09-17T04:19:08.549Z,80.627441
2018-09-17T04:22:05.193Z,80.224609
2018-09-17T04:23:21.111Z,80.12085
2018-09-17T04:24:37.116Z,80.12085
2018-09-17T04:25:53.068Z,80.023193
2018-09-17T04:27:09.104Z,79.785156
2018-09-17T04:50:29.383Z,80.187988
2018-09-17T04:52:03.393Z,79.785156
2018-09-17T04:53:19.319Z,80.426025
2018-09-17T04:54:54.212Z,81.677246
2018-09-17T04:56:10.323Z,82.281494
2018-09-17T04:57:26.365Z,82.281494
2018-09-17T04:58:42.342Z,82.385254
2018-09-17T04:59:58.445Z,82.080078
2018-09-17T05:01:33.402Z,81.878662
2018-09-17T05:03:08.276Z,81.134033
2018-09-17T05:04:43.104Z,80.731201
2018-09-17T05:05:59.155Z,80.187988
2018-09-17T05:07:15.194Z,79.986572
2018-09-17T05:08:31.207Z,79.785156
2018-09-17T05:11:45.960Z,79.986572
2018-09-17T05:13:02.113Z,79.785156
2018-09-17T05:14:17.957Z,79.882812
2018-09-17T05:15:51.802Z,79.681396
2018-09-17T05:17:07.907Z,79.577637
2018-09-17T05:19:46.791Z,79.47998
2018-09-17T05:21:02.780Z,79.376221
2018-09-17T05:22:18.752Z,79.278564
2018-09-17T05:23:34.759Z,79.620361
2018-09-17T05:25:08.664Z,79.47998
2018-09-17T05:26:25.705Z,79.516602
2018-09-17T05:30:20.613Z,80.322266
2018-09-17T05:31:54.446Z,80.627441
2018-09-17T05:35:08.259Z,80.529785
2018-09-17T05:36:24.235Z,80.529785
2018-09-17T05:37:40.312Z,80.529785
2018-09-17T05:39:14.129Z,80.487061
2018-09-17T05:40:30.062Z,80.627441
2018-09-17T05:41:46.003Z,80.688477
2018-09-17T05:43:02.995Z,80.932617
2018-09-17T05:44:19.091Z,81.134033
2018-09-17T05:46:10.821Z,82.348633
2018-09-17T05:47:26.889Z,82.141113
2018-09-17T05:48:43.065Z,81.500244
2018-09-17T05:50:16.876Z,80.993652
2018-09-17T05:51:32.897Z,80.895996
2018-09-17T05:52:48.797Z,80.993652
2018-09-17T05:54:04.873Z,80.993652
2018-09-17T05:55:38.745Z,81.5979
2018-09-17T05:57:12.692Z,82.104492
2018-09-17T05:58:28.682Z,82.446289
2018-09-17T06:00:02.512Z,82.952881
2018-09-17T06:01:36.458Z,82.104492
2018-09-17T06:02:52.392Z,82.244873
2018-09-17T06:04:08.390Z,81.799316
2018-09-17T06:05:24.339Z,82.006836
2018-09-17T06:06:40.376Z,82.409668
2018-09-17T06:07:56.445Z,82.305908
2018-09-17T06:09:12.563Z,82.409668
2018-09-17T06:10:47.540Z,81.762695
2018-09-17T06:12:03.614Z,81.665039
2018-09-17T06:13:37.523Z,81.762695
2018-09-17T06:14:53.552Z,81.561279
2018-09-17T06:16:09.460Z,81.665039
2018-09-17T06:17:43.296Z,81.665039
2018-09-17T06:19:17.390Z,81.82373
2018-09-17T06:20:33.321Z,81.82373
2018-09-17T06:21:49.362Z,81.82373
2018-09-17T06:23:24.356Z,81.82373
2018-09-17T06:24:58.465Z,81.82373
2018-09-17T06:26:32.487Z,81.68335
2018-09-17T06:27:48.542Z,81.890869
2018-09-17T06:29:04.561Z,82.434082
2018-09-17T06:30:38.416Z,82.531738
2018-09-17T06:32:12.271Z,83.239746
2018-09-17T06:33:28.331Z,83.239746
2018-09-17T06:35:02.344Z,83.135986
2018-09-17T06:36:18.307Z,83.03833
2018-09-17T06:37:34.268Z,83.03833
2018-09-17T06:38:50.193Z,82.592773
2018-09-17T06:40:06.273Z,82.897949
2018-09-17T06:41:22.345Z,82.897949
2018-09-17T06:42:38.386Z,82.897949
2018-09-17T06:43:54.389Z,83.099365
2018-09-17T06:45:10.449Z,83.300781
2018-09-17T06:46:26.394Z,83.502197
2018-09-17T06:47:42.465Z,83.502197
2018-09-17T06:48:58.433Z,83.80127
2018-09-17T06:50:14.417Z,83.703613
2018-09-17T06:51:30.456Z,83.660889
2018-09-17T06:52:46.387Z,83.966064
2018-09-17T06:54:02.454Z,84.16748
2018-09-17T06:55:36.453Z,84.368896
2018-09-17T06:56:52.373Z,84.674072
2018-09-17T06:58:08.316Z,84.973145
2018-09-17T06:59:24.285Z,84.875488
2018-09-17T07:00:40.358Z,85.27832
2018-09-17T07:01:56.498Z,85.577393
2018-09-17T07:03:12.558Z,85.882568
2018-09-17T07:04:47.467Z,86.529541
2018-09-17T07:06:22.328Z,86.083984
2018-09-17T07:07:38.344Z,85.778809
2018-09-17T07:08:54.355Z,85.980225
2018-09-17T07:10:10.324Z,85.778809
2018-09-17T07:11:26.295Z,85.882568
2018-09-17T07:12:42.222Z,86.083984
2018-09-17T07:13:58.264Z,86.181641
2018-09-17T07:15:14.216Z,86.083984
2018-09-17T07:16:30.269Z,85.882568
2018-09-17T07:17:46.299Z,86.083984
2018-09-17T07:19:02.201Z,86.181641
2018-09-17T07:20:18.263Z,86.383057
2018-09-17T07:21:34.395Z,86.383057
2018-09-17T07:22:50.396Z,86.486816
2018-09-17T07:24:25.278Z,86.383057
2018-09-17T07:25:41.236Z,85.839844
2018-09-17T07:26:57.156Z,85.943604
2018-09-17T07:28:13.089Z,86.04126
2018-09-17T07:29:29.114Z,86.2854
2018-09-17T07:31:03.076Z,86.383057
2018-09-17T07:32:38.006Z,86.04126
2018-09-17T07:33:54.106Z,85.742188
2018-09-17T07:35:10.082Z,85.540771
2018-09-17T07:36:43.928Z,85.839844
2018-09-17T07:37:59.845Z,85.943604
2018-09-17T07:39:15.851Z,85.839844
2018-09-17T07:40:31.989Z,85.839844
2018-09-17T07:41:47.946Z,85.839844
2018-09-17T07:44:45.526Z,85.400391
2018-09-17T07:46:01.696Z,85.198975
2018-09-17T07:47:17.728Z,85.198975
2018-09-17T07:51:30.330Z,85.601807
2018-09-17T07:52:46.337Z,85.296631
2018-09-17T07:54:21.211Z,85.095215
2018-09-17T07:55:38.253Z,84.997559
2018-09-17T07:56:54.313Z,85.198975
2018-09-17T07:58:10.325Z,84.753418
2018-09-17T07:59:26.301Z,84.552002
2018-09-17T08:00:42.238Z,84.350586
2018-09-17T08:01:58.267Z,84.448242
2018-09-17T08:03:32.113Z,84.649658
2018-09-17T08:05:06.993Z,84.350586
2018-09-17T08:06:23.060Z,84.106445
2018-09-17T08:07:57.910Z,83.508301
2018-09-17T08:09:13.922Z,83.26416
2018-09-17T08:10:29.932Z,82.763672
2018-09-17T08:11:45.842Z,82.562256
2018-09-17T08:13:01.974Z,82.36084
2018-09-17T08:14:18.021Z,82.36084
2018-09-17T08:15:34.113Z,82.159424
2018-09-17T08:17:08.167Z,82.019043
2018-09-17T08:18:24.150Z,81.719971
2018-09-17T08:19:40.155Z,81.518555
2018-09-17T08:20:56.040Z,81.817627
2018-09-17T08:22:12.217Z,81.518555
2018-09-17T08:23:46.056Z,80.773926
2018-09-17T08:25:02.134Z,80.371094
2018-09-17T08:26:19.136Z,80.371094
2018-09-17T08:27:35.110Z,79.931641
2018-09-17T08:28:51.039Z,79.931641
2018-09-17T08:30:07.103Z,79.528809
2018-09-17T08:31:23.120Z,79.327393
2018-09-17T08:32:39.507Z,78.894043
2018-09-17T08:33:56.200Z,78.491211
2018-09-17T08:35:12.398Z,78.253174
2018-09-17T08:36:28.381Z,77.514648
2018-09-17T08:37:44.336Z,77.648926
2018-09-17T08:39:00.428Z,77.648926
2018-09-17T08:40:16.397Z,77.349854
2018-09-17T08:41:50.362Z,77.55127
2018-09-17T08:43:06.363Z,77.648926
2018-09-17T08:44:22.466Z,77.752686
2018-09-17T08:45:38.437Z,77.850342
2018-09-17T08:47:12.256Z,78.253174
2018-09-17T08:48:28.339Z,78.253174
2018-09-17T08:49:44.341Z,78.253174
2018-09-17T08:51:00.338Z,78.149414
2018-09-17T08:52:35.270Z,78.35083
2018-09-17T08:53:51.240Z,78.051758
2018-09-17T08:55:26.108Z,77.850342
2018-09-17T08:56:42.063Z,77.648926
2018-09-17T08:59:38.635Z,77.612305
2018-09-17T09:00:54.770Z,77.514648
2018-09-17T09:02:10.702Z,77.410889
2018-09-17T09:03:26.627Z,77.172852
2018-09-17T09:06:05.576Z,76.977539
2018-09-17T09:07:39.472Z,76.574707
2018-09-17T09:08:55.509Z,76.672363
2018-09-17T09:10:11.494Z,76.434326
2018-09-17T09:11:45.441Z,75.43335
2018-09-17T09:13:01.417Z,75.036621
2018-09-17T09:14:18.190Z,75.134277
2018-09-17T09:15:33.496Z,75.537109
2018-09-17T09:17:07.345Z,75.500488
2018-09-17T09:18:23.284Z,75.396729
2018-09-17T09:19:39.310Z,75.396729
2018-09-17T09:26:48.511Z,74.89624
2018-09-17T09:28:04.432Z,73.760986
2018-09-17T09:29:38.293Z,72.924805
2018-09-17T09:30:54.315Z,73.223877
2018-09-17T09:32:10.315Z,73.126221
2018-09-17T09:33:26.388Z,72.125244
2018-09-17T09:34:42.420Z,71.228027
2018-09-17T09:35:58.418Z,72.027588
2018-09-17T09:37:14.373Z,72.027588
2018-09-17T09:38:30.371Z,71.392822
2018-09-17T09:39:46.337Z,71.490479
2018-09-17T09:41:02.333Z,71.594238
2018-09-17T09:42:18.364Z,70.690918
2018-09-17T09:43:34.366Z,70.794678
2018-09-17T09:44:50.281Z,70.458984
2018-09-17T09:46:06.428Z,70.556641
2018-09-17T09:47:22.337Z,70.056152
2018-09-17T09:48:38.295Z,69.86084
2018-09-17T09:49:55.203Z,70.056152
2018-09-17T09:51:29.320Z,70.025635
2018-09-17T09:52:45.362Z,68.725586
2018-09-17T09:54:01.231Z,68.328857
2018-09-17T09:55:17.332Z,67.724609
2018-09-17T09:56:33.375Z,67.529297
2018-09-17T09:58:07.295Z,67.095947
2018-09-17T09:59:23.265Z,67.193604
2018-09-17T10:00:39.261Z,67.39502
2018-09-17T10:01:55.344Z,67.095947
2018-09-17T10:03:11.304Z,66.394043
2018-09-17T10:04:27.359Z,65.39917
2018-09-17T10:05:43.266Z,65.667725
2018-09-17T10:06:59.317Z,63.769531
2018-09-17T10:08:15.365Z,62.176514
2018-09-17T10:09:31.313Z,62.774658
2018-09-17T10:10:47.379Z,63.671875
2018-09-17T10:12:03.361Z,64.337158
2018-09-17T10:13:19.320Z,66.235352
2018-09-17T10:14:35.296Z,69.958496
2018-09-17T10:16:09.341Z,71.722412
2018-09-17T10:17:25.296Z,72.424316
2018-09-17T10:18:41.234Z,72.424316
2018-09-17T10:19:57.200Z,72.619629
2018-09-17T10:21:13.263Z,71.887207
2018-09-17T10:22:29.257Z,71.789551
2018-09-17T10:23:45.236Z,72.857666
2018-09-17T10:25:01.366Z,73.55957
2018-09-17T10:26:17.381Z,73.55957
2018-09-17T10:27:51.340Z,73.455811
2018-09-17T10:29:07.466Z,73.55957
2018-09-17T10:30:23.439Z,73.455811
2018-09-17T10:31:39.504Z,73.254395
2018-09-17T10:32:55.524Z,74.090576
2018-09-17T10:34:11.520Z,73.657227
2018-09-17T10:35:27.595Z,75.32959
2018-09-17T10:36:43.596Z,75.561523
2018-09-17T10:37:59.581Z,75.927734
2018-09-17T10:39:15.561Z,75.830078
2018-09-17T10:40:31.513Z,76.12915
2018-09-17T10:41:47.492Z,76.727295
2018-09-17T10:43:03.519Z,75.793457
2018-09-17T10:44:19.593Z,75.457764
2018-09-17T10:45:35.619Z,75.354004
2018-09-17T10:46:51.567Z,75.457764
2018-09-17T10:48:07.666Z,74.554443
2018-09-17T10:49:23.755Z,74.21875
2018-09-17T10:50:39.722Z,75.018311
2018-09-17T10:51:55.778Z,74.21875
2018-09-17T10:53:11.887Z,74.719238
2018-09-17T10:54:27.870Z,74.517822
2018-09-17T10:55:43.883Z,74.121094
2018-09-17T10:56:59.901Z,74.853516
2018-09-17T10:58:16.016Z,74.853516
2018-09-17T10:59:32.062Z,74.554443
2018-09-17T11:00:48.262Z,74.822998
2018-09-17T11:02:04.270Z,73.718262
2018-09-17T11:03:38.422Z,73.754883
2018-09-17T11:04:54.360Z,74.359131
2018-09-17T11:06:10.404Z,73.321533
2018-09-17T11:07:26.580Z,73.687744
2018-09-17T11:08:42.548Z,72.351074
2018-09-17T11:09:58.503Z,72.55249
2018-09-17T11:11:32.492Z,72.55249
2018-09-17T11:12:48.491Z,73.052979
2018-09-17T11:14:04.410Z,72.888184
2018-09-17T11:15:38.280Z,72.851562
2018-09-17T11:16:54.274Z,72.753906
2018-09-17T11:18:10.266Z,73.120117
2018-09-17T11:19:26.262Z,74.255371
2018-09-17T11:20:42.228Z,74.554443
2018-09-17T11:21:58.141Z,74.853516
2018-09-17T11:23:14.193Z,75.457764
2018-09-17T11:24:49.028Z,75.457764
2018-09-17T11:26:04.986Z,74.920654
2018-09-17T11:27:20.972Z,75.689697
2018-09-17T11:28:37.039Z,75.98877
2018-09-17T11:29:53.047Z,76.190186
2018-09-17T11:31:09.065Z,76.293945
2018-09-17T11:32:25.018Z,75.891113
2018-09-17T11:33:59.855Z,75.592041
2018-09-17T11:35:15.833Z,75.98877
2018-09-17T11:36:31.859Z,76.293945
2018-09-17T11:37:47.821Z,76.794434
2018-09-17T11:39:03.927Z,76.794434
2018-09-17T11:40:38.832Z,76.12915
2018-09-17T11:41:54.766Z,76.593018
2018-09-17T11:43:10.767Z,76.153564
2018-09-17T11:44:27.811Z,75.653076
2018-09-17T11:45:43.794Z,74.053955
2018-09-17T11:46:59.726Z,73.754883
2018-09-17T11:48:15.802Z,73.919678
2018-09-17T11:49:31.805Z,72.888184
2018-09-17T11:50:47.927Z,71.826172
2018-09-17T11:52:03.873Z,72.357178
2018-09-17T11:53:19.888Z,71.624756
2018-09-17T11:54:35.855Z,72.619629
2018-09-17T11:55:51.777Z,71.691895
2018-09-17T11:57:07.692Z,71.490479
2018-09-17T11:58:41.587Z,70.654297
2018-09-17T12:00:15.493Z,71.356201
2018-09-17T12:01:31.442Z,71.020508
2018-09-17T12:03:05.323Z,70.623779
2018-09-17T12:04:21.375Z,70.422363
2018-09-17T12:05:37.423Z,70.526123
2018-09-17T12:06:53.430Z,71.124268
2018-09-17T12:08:09.396Z,70.825195
2018-09-17T12:09:26.405Z,70.825195
2018-09-17T12:11:01.438Z,71.154785
2018-09-17T12:12:17.467Z,70.721436
2018-09-17T12:13:33.494Z,69.921875
2018-09-17T12:14:49.455Z,69.32373
2018-09-17T12:16:05.413Z,68.896484
2018-09-17T12:17:21.381Z,66.870117
2018-09-17T12:18:37.358Z,67.895508
2018-09-17T12:19:53.435Z,66.271973
2018-09-17T12:21:09.413Z,67.034912
2018-09-17T12:22:25.558Z,65.240479
2018-09-17T12:23:41.588Z,65.441895
2018-09-17T12:24:57.653Z,64.715576
2018-09-17T12:26:13.773Z,65.209961
2018-09-17T12:27:29.701Z,65.576172
2018-09-17T12:28:45.622Z,64.94751
2018-09-17T12:30:01.596Z,63.287354
2018-09-17T12:31:18.559Z,63.586426
2018-09-17T12:32:52.469Z,63.48877
2018-09-17T12:34:08.477Z,63.189697
2018-09-17T12:35:25.458Z,63.287354
2018-09-17T12:36:41.485Z,63.885498
2018-09-17T12:37:57.573Z,62.988281
2018-09-17T12:39:13.572Z,63.189697
2018-09-17T12:40:47.411Z,64.715576
2018-09-17T12:42:03.407Z,64.013672
2018-09-17T12:43:38.364Z,64.910889
2018-09-17T12:45:12.242Z,62.322998
2018-09-17T12:46:28.201Z,62.451172
2018-09-17T12:47:44.319Z,63.348389
2018-09-17T12:49:00.281Z,61.499023
2018-09-17T12:50:16.250Z,60.473633
2018-09-17T12:51:32.233Z,58.880615
2018-09-17T12:52:48.174Z,59.082031
2018-09-17T12:54:04.292Z,57.562256
2018-09-17T12:55:20.261Z,55.871582
2018-09-17T12:56:54.106Z,53.186035
2018-09-17T12:58:10.048Z,54.083252
2018-09-17T12:59:26.236Z,54.455566
2018-09-17T13:01:00.146Z,54.455566
2018-09-17T13:02:16.145Z,55.670166
2018-09-17T13:03:32.109Z,56.665039
2018-09-17T13:04:48.083Z,57.037354
2018-09-17T13:06:04.060Z,57.110596
2018-09-17T13:07:20.048Z,53.039551
2018-09-17T13:08:36.049Z,57.13501
2018-09-17T13:09:52.020Z,56.115723
2018-09-17T13:11:07.946Z,58.099365
2018-09-17T13:12:23.952Z,56.811523
2018-09-17T13:13:57.813Z,57.702637
2018-09-17T13:15:13.856Z,58.69751
2018-09-17T13:16:29.862Z,59.960938
2018-09-17T13:17:45.875Z,62.072754
2018-09-17T13:19:19.782Z,61.309814
2018-09-17T13:20:53.746Z,61.737061
2018-09-17T13:22:09.678Z,60.516357
2018-09-17T13:23:25.789Z,60.742188
2018-09-17T13:24:41.780Z,60.943604
2018-09-17T13:25:57.726Z,59.991455
2018-09-17T13:27:13.720Z,59.887695
2018-09-17T13:28:29.835Z,59.16748
2018-09-17T13:29:45.899Z,60.583496
2018-09-17T13:31:01.972Z,62.402344
2018-09-17T13:32:18.076Z,61.804199
2018-09-17T13:33:34.218Z,61.779785
2018-09-17T13:34:50.338Z,60.784912
2018-09-17T13:36:06.352Z,60.784912
2018-09-17T13:37:40.242Z,60.754395
2018-09-17T13:38:56.353Z,58.813477
2018-09-17T13:40:30.244Z,57.861328
2018-09-17T13:41:46.262Z,56.396484
2018-09-17T13:43:21.120Z,54.211426
2018-09-17T13:44:55.037Z,52.160645
2018-09-17T13:46:11.174Z,51.397705
2018-09-17T13:47:45.115Z,49.6521
2018-09-17T13:49:01.108Z,46.881104
2018-09-17T13:50:17.206Z,44.75708
2018-09-17T13:51:33.199Z,39.001465
2018-09-17T13:53:07.191Z,38.769531
2018-09-17T13:54:23.122Z,36.535645
2018-09-17T13:55:39.151Z,36.14502
2018-09-17T13:56:55.261Z,36.456299
2018-09-17T13:58:11.279Z,36.322021
2018-09-17T13:59:27.490Z,36.114502
2018-09-17T14:00:43.574Z,35.980225
2018-09-17T14:01:59.619Z,34.649658
2018-09-17T14:03:15.680Z,33.459473
2018-09-17T14:04:31.882Z,34.362793
2018-09-17T14:05:47.857Z,35.046387
2018-09-17T14:07:03.947Z,33.24585
2018-09-17T14:08:39.072Z,32.330322
2018-09-17T14:09:55.188Z,32.507324
2018-09-17T14:11:29.145Z,33.520508
2018-09-17T14:13:04.161Z,31.744385
2018-09-17T14:14:38.120Z,30.712891
2018-09-17T14:15:54.210Z,31.323242
2018-09-17T14:17:10.466Z,32.647705
2018-09-17T14:18:26.661Z,32.568359
2018-09-17T14:20:00.725Z,32.550049
2018-09-17T14:21:16.927Z,32.940674
2018-09-17T14:22:34.191Z,31.842041
2018-09-17T14:23:51.228Z,32.165527
2018-09-17T14:25:25.268Z,31.176758
2018-09-17T14:26:41.382Z,31.011963
2018-09-17T14:28:15.497Z,29.138184
2018-09-17T14:31:12.338Z,29.23584
2018-09-17T14:32:46.473Z,29.400635
2018-09-17T14:34:02.461Z,27.56958
2018-09-17T14:35:18.626Z,26.495361
2018-09-17T14:37:57.686Z,26.629639
2018-09-17T14:39:31.652Z,27.22168
2018-09-17T14:40:47.617Z,26.68457
2018-09-17T14:42:03.781Z,27.56958
2018-09-17T14:43:19.899Z,26.501465
2018-09-17T14:44:35.979Z,27.142334
2018-09-17T14:46:10.085Z,26.184082
2018-09-17T14:47:26.051Z,26.318359
2018-09-17T14:48:42.328Z,29.748535
2018-09-17T14:49:58.309Z,28.759766
2018-09-17T14:51:14.345Z,29.718018
2018-09-17T14:52:30.487Z,27.386475
2018-09-17T14:53:46.622Z,26.66626
2018-09-17T14:55:20.647Z,27.941895
2018-09-17T14:56:37.641Z,27.252197
2018-09-17T14:57:53.692Z,27.331543
2018-09-17T14:59:09.856Z,29.022217
2018-09-17T15:00:25.907Z,29.01001
2018-09-17T15:01:59.938Z,28.649902
2018-09-17T15:03:15.890Z,29.138184
2018-09-17T15:04:49.861Z,31.188965
2018-09-17T15:06:23.758Z,30.981445
2018-09-17T15:07:39.997Z,30.773926
2018-09-17T15:08:56.010Z,32.037354
2018-09-17T15:10:13.145Z,29.595947
2018-09-17T15:11:29.083Z,30.078125
2018-09-17T15:13:04.001Z,31.066895
2018-09-17T15:14:20.209Z,29.400635
2018-09-17T15:15:36.414Z,29.400635
2018-09-17T15:16:53.340Z,29.882812
2018-09-17T15:18:09.293Z,29.870605
2018-09-17T15:19:25.354Z,30.065918
2018-09-17T15:20:41.319Z,29.705811
2018-09-17T15:21:57.435Z,29.174805
2018-09-17T15:23:31.402Z,27.91748
2018-09-17T15:24:47.465Z,27.636719
2018-09-17T15:26:03.782Z,27.941895
2018-09-17T15:27:19.843Z,28.125
2018-09-17T15:28:36.805Z,27.166748
2018-09-17T15:30:10.812Z,26.501465
2018-09-17T15:31:27.029Z,26.947021
2018-09-17T15:33:02.065Z,27.429199
2018-09-17T15:34:18.162Z,27.746582
2018-09-17T15:35:34.420Z,28.356934
2018-09-17T15:36:50.642Z,27.471924
2018-09-17T15:38:06.756Z,28.387451
2018-09-17T15:39:23.091Z,29.626465
2018-09-17T15:40:57.000Z,32.562256
2018-09-17T15:42:12.959Z,33.740234
2018-09-17T15:43:29.052Z,34.985352
2018-09-17T15:44:45.217Z,34.936523
2018-09-17T15:46:01.359Z,36.431885
2018-09-17T15:47:36.400Z,38.006592
2018-09-17T15:48:52.806Z,39.520264
2018-09-17T15:50:09.042Z,39.324951
2018-09-17T15:51:24.253Z,39.123535
2018-09-17T15:52:40.535Z,39.324951
2018-09-17T15:55:37.188Z,38.751221
2018-09-17T15:56:53.240Z,38.653564
2018-09-17T16:23:52.615Z,37.774658
2018-09-17T16:25:26.661Z,38.647461
2018-09-17T16:27:19.738Z,38.366699
2018-09-17T16:28:53.755Z,39.160156
2018-09-17T16:30:10.037Z,39.0625
2018-09-17T16:31:44.913Z,37.976074
2018-09-17T16:33:00.993Z,37.872314
2018-09-17T16:35:57.773Z,37.976074
2018-09-17T16:37:31.769Z,37.695312
2018-09-17T16:39:05.639Z,38.586426
2018-09-17T16:40:21.797Z,38.781738
2018-09-17T16:41:55.764Z,38.684082
2018-09-17T16:43:11.894Z,38.684082
2018-09-17T16:44:45.832Z,38.012695
2018-09-17T16:46:20.034Z,38.287354
2018-09-17T16:48:12.844Z,38.50708
2018-09-17T16:49:46.911Z,39.892578
2018-09-17T16:51:20.938Z,40.997314
2018-09-17T16:52:54.840Z,40.997314
2018-09-17T16:54:28.821Z,40.997314
2018-09-17T16:56:02.869Z,40.899658
2018-09-17T16:57:56.106Z,40.124512
2018-09-17T16:59:30.163Z,40.124512